Time;durP1;ratioP1;P1;durP2;ratioP2;P2;SDS_P1;SDS_P2;PMS_P1;PMS_P2;Temp;Humidity;BMP_temperature;BMP_pressure;BME280_temperature;BME280_humidity;BME280_pressure;Samples;Min_cycle;Max_cycle;Signal;HPM_P1;HPM_P2
2022/04/24 00:01:58;;;;;;;7.32;5.13;;;;;;;12.61;62.15;100251.41;4998505;28;20487;-43
2022/04/24 00:04:26;;;;;;;7.00;5.22;;;;;;;12.55;60.82;100246.81;4995512;28;20036;-43
2022/04/24 00:06:53;;;;;;;5.72;4.90;;;;;;;12.49;61.71;100251.06;4996763;28;20097;-42
2022/04/24 00:09:21;;;;;;;6.63;5.20;;;;;;;12.43;61.64;100239.28;4994450;28;20030;-42
2022/04/24 00:11:47;;;;;;;7.68;5.03;;;;;;;12.40;61.75;100242.31;5007784;28;20025;-44
2022/04/24 00:14:13;;;;;;;8.77;5.18;;;;;;;12.35;62.72;100246.59;5010799;28;20057;-46
2022/04/24 00:16:39;;;;;;;5.88;5.00;;;;;;;12.31;63.25;100240.78;5015993;28;20117;-41
2022/04/24 00:19:05;;;;;;;6.25;4.85;;;;;;;12.24;63.36;100232.66;5015048;28;20029;-42
2022/04/24 00:21:31;;;;;;;6.28;4.82;;;;;;;12.23;63.52;100240.88;5015466;28;20032;-42
2022/04/24 00:23:57;;;;;;;5.63;5.03;;;;;;;12.17;63.73;100236.25;5013140;28;20029;-41
2022/04/24 00:26:22;;;;;;;6.32;4.88;;;;;;;12.14;63.99;100232.13;5014392;28;20039;-43
2022/04/24 00:28:48;;;;;;;7.75;5.20;;;;;;;12.08;64.20;100223.00;5006921;28;20119;-43
2022/04/24 00:31:13;;;;;;;8.48;5.28;;;;;;;12.06;64.51;100229.53;4996658;28;20092;-42
2022/04/24 00:33:38;;;;;;;7.60;5.40;;;;;;;12.03;64.98;100216.53;4995852;28;20481;-42
2022/04/24 00:36:04;;;;;;;7.25;5.75;;;;;;;11.98;64.43;100227.78;5003071;28;20030;-44
2022/04/24 00:38:32;;;;;;;7.80;5.68;;;;;;;11.93;65.25;100217.66;4997309;28;20887;-42
2022/04/24 00:40:57;;;;;;;9.13;5.57;;;;;;;11.90;65.11;100222.53;5014927;28;20453;-41
2022/04/24 00:43:23;;;;;;;9.00;5.70;;;;;;;11.81;65.68;100219.06;5015045;28;20057;-41
2022/04/24 00:45:54;;;;;;;7.75;5.72;;;;;;;11.75;66.00;100222.50;5016062;28;20407;-42
2022/04/24 00:48:20;;;;;;;9.10;6.13;;;;;;;11.71;66.44;100218.53;5012865;28;20108;-43
2022/04/24 00:50:45;;;;;;;10.25;5.82;;;;;;;11.65;67.81;100205.91;5015783;28;20316;-44
2022/04/24 00:53:11;;;;;;;9.57;5.30;;;;;;;11.59;66.51;100210.13;5011280;28;20035;-44
2022/04/24 00:55:36;;;;;;;6.43;5.32;;;;;;;11.60;66.78;100211.78;5016267;28;20100;-42
2022/04/24 00:58:02;;;;;;;5.68;5.03;;;;;;;11.56;66.86;100215.88;5005184;28;20504;-42
2022/04/24 01:00:27;;;;;;;7.05;5.35;;;;;;;11.51;67.67;100210.25;5013734;28;20543;-44
2022/04/24 01:02:53;;;;;;;6.90;5.22;;;;;;;11.47;67.81;100208.91;5013957;28;20044;-46
2022/04/24 01:05:18;;;;;;;8.73;5.60;;;;;;;11.41;68.91;100212.34;5015138;28;20031;-47
2022/04/24 01:07:44;;;;;;;9.25;5.28;;;;;;;11.37;69.66;100217.19;5011245;28;20392;-43
2022/04/24 01:10:09;;;;;;;6.78;5.22;;;;;;;11.28;68.97;100213.78;5004576;28;20041;-46
2022/04/24 01:12:35;;;;;;;6.95;5.15;;;;;;;11.28;69.49;100216.44;5013094;28;20409;-47
2022/04/24 01:15:00;;;;;;;6.22;5.47;;;;;;;11.25;69.74;100218.66;5012886;28;20037;-45
2022/04/24 01:17:26;;;;;;;7.00;5.72;;;;;;;11.18;69.93;100221.22;5014433;28;20028;-42
2022/04/24 01:19:53;;;;;;;7.32;5.53;;;;;;;11.13;70.47;100226.28;5014277;28;20186;-43
2022/04/24 01:22:18;;;;;;;7.15;5.65;;;;;;;11.10;70.70;100229.31;5013859;28;20048;-42
2022/04/24 01:24:43;;;;;;;7.15;5.22;;;;;;;11.00;71.16;100221.56;5014944;28;20468;-43
2022/04/24 01:27:09;;;;;;;6.78;5.30;;;;;;;10.94;70.59;100228.41;5014616;28;20074;-41
2022/04/24 01:29:34;;;;;;;6.80;5.53;;;;;;;10.87;70.97;100222.13;5012731;28;20017;-42
2022/04/24 01:31:59;;;;;;;9.23;5.72;;;;;;;10.84;71.40;100219.81;5014624;28;20533;-42
2022/04/24 01:34:24;;;;;;;8.00;5.55;;;;;;;10.77;72.32;100219.69;5013579;28;20036;-41
2022/04/24 01:36:50;;;;;;;7.80;5.30;;;;;;;10.72;72.09;100219.41;5014549;28;20443;-43
2022/04/24 01:39:15;;;;;;;7.35;5.43;;;;;;;10.65;72.25;100221.13;5013310;28;20041;-42
2022/04/24 01:41:41;;;;;;;8.02;5.40;;;;;;;10.63;72.10;100223.16;5009158;28;20604;-40
2022/04/24 01:44:07;;;;;;;7.72;5.68;;;;;;;10.57;72.74;100215.84;5009136;28;20112;-40
2022/04/24 01:46:32;;;;;;;8.68;5.90;;;;;;;10.59;73.10;100225.34;5013463;28;20088;-44
2022/04/24 01:48:57;;;;;;;6.88;5.95;;;;;;;10.65;72.22;100226.47;5013043;28;20109;-42
2022/04/24 01:51:23;;;;;;;10.25;5.65;;;;;;;10.62;72.61;100222.31;5000330;28;20022;-41
2022/04/24 01:53:48;;;;;;;6.65;5.72;;;;;;;10.55;72.81;100213.34;5008198;28;20048;-42
2022/04/24 01:56:14;;;;;;;9.27;5.80;;;;;;;10.51;73.33;100216.56;5014401;28;20060;-46
2022/04/24 01:58:40;;;;;;;8.60;5.82;;;;;;;10.46;72.74;100219.75;5014953;28;20021;-45
2022/04/24 02:01:06;;;;;;;9.05;6.38;;;;;;;10.45;72.69;100218.91;5015093;28;20140;-42
2022/04/24 02:03:33;;;;;;;7.85;6.25;;;;;;;10.41;73.49;100227.44;5012687;28;20047;-41
2022/04/24 02:05:58;;;;;;;7.05;5.78;;;;;;;10.39;73.91;100216.13;5011988;28;20169;-42
2022/04/24 02:08:24;;;;;;;6.63;5.93;;;;;;;10.36;73.46;100227.97;5012197;28;20021;-42
2022/04/24 02:10:50;;;;;;;10.43;6.20;;;;;;;10.36;73.83;100219.13;5014913;28;20923;-41
2022/04/24 02:13:16;;;;;;;7.75;6.30;;;;;;;10.33;74.26;100222.97;5011546;28;20064;-41
2022/04/24 02:15:42;;;;;;;9.70;6.57;;;;;;;10.35;74.77;100218.31;5006948;28;20278;-43
2022/04/24 02:18:08;;;;;;;7.68;6.50;;;;;;;10.30;74.17;100222.47;5008662;28;20198;-41
2022/04/24 02:20:33;;;;;;;7.78;6.45;;;;;;;10.30;74.49;100217.13;5017317;28;20022;-42
2022/04/24 02:22:59;;;;;;;10.52;6.80;;;;;;;10.30;74.75;100223.28;5014564;28;20037;-42
2022/04/24 02:25:25;;;;;;;8.25;6.53;;;;;;;10.31;74.71;100213.47;5010742;28;20104;-44
2022/04/24 02:27:53;;;;;;;12.88;6.90;;;;;;;10.29;75.13;100224.31;5012720;28;20029;-42
2022/04/24 02:30:22;;;;;;;7.97;6.55;;;;;;;10.30;75.19;100222.47;5017940;28;20851;-44
2022/04/24 02:32:48;;;;;;;7.65;6.82;;;;;;;10.22;74.85;100213.50;5015735;28;20104;-42
2022/04/24 02:35:13;;;;;;;11.65;7.35;;;;;;;10.21;75.32;100216.34;5016055;28;20112;-42
2022/04/24 02:37:38;;;;;;;10.02;7.10;;;;;;;10.15;75.71;100219.69;5016345;28;20112;-42
2022/04/24 02:40:09;;;;;;;11.15;7.32;;;;;;;10.12;75.76;100209.38;5017563;28;20033;-41
2022/04/24 02:42:36;;;;;;;11.65;7.68;;;;;;;10.08;76.07;100211.53;5016972;28;20032;-41
2022/04/24 02:45:02;;;;;;;11.75;7.47;;;;;;;10.02;76.47;100218.41;5016540;28;20037;-42
2022/04/24 02:47:28;;;;;;;10.02;6.68;;;;;;;9.97;76.38;100226.09;5013859;28;20033;-41
2022/04/24 02:49:53;;;;;;;9.63;7.15;;;;;;;9.93;76.73;100226.63;5009312;28;20025;-44
2022/04/24 02:52:18;;;;;;;8.25;7.10;;;;;;;9.87;77.50;100228.13;5013198;28;20026;-42
2022/04/24 02:54:43;;;;;;;8.60;6.65;;;;;;;9.84;77.00;100224.00;5016126;28;20163;-41
2022/04/24 02:57:09;;;;;;;9.10;7.30;;;;;;;9.82;77.64;100231.31;5009821;28;20389;-45
2022/04/24 02:59:34;;;;;;;11.65;7.57;;;;;;;9.74;78.46;100238.50;5012107;28;20279;-43
2022/04/24 03:01:59;;;;;;;9.65;7.30;;;;;;;9.70;78.21;100235.34;5014660;28;20021;-42
2022/04/24 03:04:24;;;;;;;8.75;7.32;;;;;;;9.65;78.92;100238.53;5015676;28;20013;-41
2022/04/24 03:06:50;;;;;;;10.95;7.78;;;;;;;9.62;79.56;100235.38;5016834;28;20025;-43
2022/04/24 03:09:15;;;;;;;11.63;7.80;;;;;;;9.59;79.76;100231.22;5031271;28;20044;-41
2022/04/24 03:11:40;;;;;;;9.95;7.32;;;;;;;9.54;79.81;100230.91;5017583;28;20137;-46
2022/04/24 03:14:05;;;;;;;11.65;8.00;;;;;;;9.52;80.66;100232.88;5013635;28;20060;-45
2022/04/24 03:16:31;;;;;;;9.68;7.57;;;;;;;9.47;80.51;100232.56;5016681;28;20417;-43
2022/04/24 03:18:56;;;;;;;13.45;8.00;;;;;;;9.44;81.21;100243.59;5010119;28;20055;-42
2022/04/24 03:21:21;;;;;;;9.85;7.90;;;;;;;9.36;81.54;100231.09;5013169;28;20033;-41
2022/04/24 03:23:47;;;;;;;11.00;7.95;;;;;;;9.38;82.25;100226.41;5013156;28;20148;-41
2022/04/24 03:26:13;;;;;;;11.15;7.97;;;;;;;9.36;82.21;100228.41;5013660;28;20025;-43
2022/04/24 03:28:40;;;;;;;10.23;8.07;;;;;;;9.32;82.43;100233.25;5013476;28;20033;-43
2022/04/24 03:31:05;;;;;;;9.43;7.75;;;;;;;9.31;83.23;100233.41;5011596;28;20531;-41
2022/04/24 03:33:30;;;;;;;11.57;7.68;;;;;;;9.29;83.36;100227.44;5009411;28;20105;-43
2022/04/24 03:35:56;;;;;;;14.35;7.90;;;;;;;9.26;83.19;100222.44;5016765;28;20488;-43
2022/04/24 03:38:21;;;;;;;11.20;8.00;;;;;;;9.26;83.39;100223.25;5011782;28;20072;-43
2022/04/24 03:40:46;;;;;;;11.13;8.35;;;;;;;9.22;84.28;100229.13;5012274;28;20034;-43
2022/04/24 03:43:11;;;;;;;9.80;7.65;;;;;;;9.19;84.72;100229.44;5016107;28;20047;-47
2022/04/24 03:45:37;;;;;;;11.38;8.10;;;;;;;9.18;84.96;100233.91;5015720;28;20052;-40
2022/04/24 03:48:02;;;;;;;12.75;8.15;;;;;;;9.14;85.59;100232.59;5010697;28;20415;-44
2022/04/24 03:50:27;;;;;;;10.63;8.07;;;;;;;9.10;86.21;100232.09;5007694;28;20040;-42
2022/04/24 03:52:53;;;;;;;11.18;7.63;;;;;;;9.08;86.34;100231.44;5009518;28;20100;-45
2022/04/24 03:55:18;;;;;;;10.27;8.18;;;;;;;9.05;86.71;100230.94;5016211;28;20025;-42
2022/04/24 03:57:43;;;;;;;11.07;7.95;;;;;;;9.03;86.84;100230.25;5015772;28;20040;-42
2022/04/24 04:00:09;;;;;;;11.65;8.13;;;;;;;9.02;87.05;100231.28;5011371;28;20029;-42
2022/04/24 04:02:48;;;;;;;11.63;7.63;;;;;;;8.98;86.83;100224.59;5009837;28;20466;-45
2022/04/24 04:05:14;;;;;;;10.48;8.18;;;;;;;8.91;88.11;100222.63;5010192;28;20458;-42
2022/04/24 04:07:39;;;;;;;11.60;7.85;;;;;;;8.91;87.97;100230.59;5014998;28;20041;-41
2022/04/24 04:10:06;;;;;;;12.15;7.75;;;;;;;8.88;88.01;100238.91;5016599;28;20032;-41
2022/04/24 04:12:32;;;;;;;16.33;8.27;;;;;;;8.86;88.48;100230.25;5015824;28;20033;-42
2022/04/24 04:15:00;;;;;;;11.18;7.90;;;;;;;8.82;88.73;100230.75;5016020;28;20025;-43
2022/04/24 04:17:25;;;;;;;10.77;7.85;;;;;;;8.81;88.92;100232.59;5015790;28;20307;-42
2022/04/24 04:19:51;;;;;;;13.20;8.20;;;;;;;8.76;89.43;100222.44;5015315;28;20112;-42
2022/04/24 04:22:16;;;;;;;14.13;8.02;;;;;;;8.77;89.62;100237.41;5004943;28;20022;-43
2022/04/24 04:24:43;;;;;;;12.90;7.70;;;;;;;8.76;89.66;100235.75;5010736;28;20087;-42
2022/04/24 04:27:10;;;;;;;10.88;8.30;;;;;;;8.76;90.59;100235.75;5015332;28;20071;-41
2022/04/24 04:29:35;;;;;;;10.25;7.43;;;;;;;8.73;89.77;100233.41;5016467;28;20469;-45
2022/04/24 04:32:02;;;;;;;14.95;8.63;;;;;;;8.73;90.34;100235.25;5012775;28;20178;-43
2022/04/24 04:34:28;;;;;;;13.98;8.10;;;;;;;8.69;90.58;100233.88;5005889;28;20030;-45
2022/04/24 04:36:53;;;;;;;12.52;8.05;;;;;;;8.70;90.81;100240.88;5012100;28;20605;-42
2022/04/24 04:39:19;;;;;;;11.18;8.02;;;;;;;8.69;90.28;100244.53;5013881;28;20049;-43
2022/04/24 04:41:44;;;;;;;10.18;7.40;;;;;;;8.68;91.15;100250.88;5015623;28;20087;-40
2022/04/24 04:44:10;;;;;;;10.57;7.32;;;;;;;8.68;90.91;100251.69;5015204;28;20025;-42
2022/04/24 04:46:35;;;;;;;10.07;7.53;;;;;;;8.66;90.67;100250.22;5016442;28;20017;-42
2022/04/24 04:49:00;;;;;;;11.10;7.43;;;;;;;8.70;91.33;100252.34;5013248;28;20273;-43
2022/04/24 04:51:25;;;;;;;14.07;8.00;;;;;;;8.67;91.31;100251.84;5013904;28;20031;-41
2022/04/24 04:53:54;;;;;;;11.07;7.32;;;;;;;8.68;91.08;100258.84;5012954;28;20401;-43
2022/04/24 04:56:19;;;;;;;12.38;7.82;;;;;;;8.66;91.18;100266.19;5014381;28;20049;-42
2022/04/24 04:58:45;;;;;;;10.65;8.10;;;;;;;8.67;91.39;100262.50;5007075;28;20080;-41
2022/04/24 05:01:10;;;;;;;10.52;7.05;;;;;;;8.66;90.71;100263.53;5013640;28;20017;-41
2022/04/24 05:03:35;;;;;;;11.10;7.18;;;;;;;8.66;91.37;100269.66;5007288;28;20424;-41
2022/04/24 05:06:00;;;;;;;11.73;7.13;;;;;;;8.66;91.50;100271.50;4997482;28;20074;-42
2022/04/24 05:08:26;;;;;;;11.02;7.60;;;;;;;8.64;91.40;100266.34;4995208;28;20026;-43
2022/04/24 05:10:51;;;;;;;11.95;7.63;;;;;;;8.63;91.19;100272.66;5002608;28;20099;-41
2022/04/24 05:13:17;;;;;;;12.30;7.47;;;;;;;8.66;90.97;100285.63;5016281;28;20112;-43
2022/04/24 05:15:42;;;;;;;15.07;7.03;;;;;;;8.69;91.52;100281.81;5016144;28;20033;-41
2022/04/24 05:18:07;;;;;;;12.32;6.90;;;;;;;8.75;90.72;100289.97;5014909;28;20298;-41
2022/04/24 05:20:33;;;;;;;10.23;7.00;;;;;;;8.77;90.73;100289.81;5017576;28;20044;-44
2022/04/24 05:23:06;;;;;;;9.63;7.05;;;;;;;8.78;90.46;100283.50;5014556;28;20025;-40
2022/04/24 05:25:31;;;;;;;8.20;6.60;;;;;;;8.78;90.24;100299.47;5010284;28;20038;-42
2022/04/24 05:27:57;;;;;;;9.30;6.78;;;;;;;8.82;90.07;100299.97;5001657;28;20500;-40
2022/04/24 05:30:23;;;;;;;11.50;6.97;;;;;;;8.87;90.14;100295.81;5010736;28;20061;-46
2022/04/24 05:32:50;;;;;;;9.55;7.07;;;;;;;8.88;90.11;100297.50;5008686;28;20317;-41
2022/04/24 05:35:16;;;;;;;9.48;7.22;;;;;;;8.90;90.27;100308.00;5000842;28;20017;-41
2022/04/24 05:37:42;;;;;;;11.13;6.63;;;;;;;8.94;89.91;100309.31;4995944;28;20029;-41
2022/04/24 05:40:08;;;;;;;9.88;6.65;;;;;;;8.97;89.50;100306.34;4995558;28;20057;-42
2022/04/24 05:42:33;;;;;;;9.45;6.57;;;;;;;8.97;88.98;100301.00;5008593;28;20465;-45
2022/04/24 05:45:04;;;;;;;9.00;6.40;;;;;;;8.99;88.54;100300.84;5014973;28;20047;-42
2022/04/24 05:47:30;;;;;;;10.57;6.77;;;;;;;9.02;88.53;100304.00;5004528;28;20421;-42
2022/04/24 05:49:55;;;;;;;9.70;6.57;;;;;;;9.09;88.73;100312.19;4996250;28;20030;-41
2022/04/24 05:52:20;;;;;;;10.93;6.97;;;;;;;9.15;88.94;100308.88;4993637;28;20021;-41
2022/04/24 05:54:46;;;;;;;11.88;6.43;;;;;;;9.17;86.70;100311.38;5000666;28;20037;-42
2022/04/24 05:57:11;;;;;;;8.50;6.07;;;;;;;9.16;87.01;100310.50;5002518;28;20393;-42
2022/04/24 05:59:36;;;;;;;10.15;6.22;;;;;;;9.22;87.15;100317.84;5002923;28;20042;-41
2022/04/24 06:02:02;;;;;;;11.05;6.50;;;;;;;9.26;86.79;100315.69;5016085;28;20033;-42
2022/04/24 06:04:27;;;;;;;10.73;6.38;;;;;;;9.29;86.28;100318.03;4998313;28;20113;-41
2022/04/24 06:06:52;;;;;;;11.57;6.05;;;;;;;9.29;87.33;100316.19;5006319;28;20034;-43
2022/04/24 06:09:18;;;;;;;11.50;6.15;;;;;;;9.39;86.54;100323.22;5014321;28;20033;-41
2022/04/24 06:11:44;;;;;;;9.95;6.32;;;;;;;9.43;86.12;100316.53;5016950;28;20099;-42
2022/04/24 06:14:09;;;;;;;8.93;6.45;;;;;;;9.48;85.46;100323.03;5019621;28;20089;-42
2022/04/24 06:16:35;;;;;;;8.30;6.05;;;;;;;9.54;84.03;100324.19;5021047;28;20108;-43
2022/04/24 06:19:00;;;;;;;11.00;6.28;;;;;;;9.57;84.84;100329.19;5019293;28;20447;-42
2022/04/24 06:21:25;;;;;;;13.60;6.25;;;;;;;9.59;83.96;100329.00;5019064;28;20141;-41
2022/04/24 06:23:51;;;;;;;10.90;6.03;;;;;;;9.67;83.88;100337.00;5007080;28;20045;-41
2022/04/24 06:26:16;;;;;;;8.05;6.18;;;;;;;9.68;83.71;100326.19;4999260;28;20558;-42
2022/04/24 06:28:42;;;;;;;9.43;6.50;;;;;;;9.73;83.52;100332.84;5006478;28;20026;-41
2022/04/24 06:31:08;;;;;;;9.63;6.07;;;;;;;9.74;82.67;100321.19;5009526;28;20436;-42
2022/04/24 06:33:33;;;;;;;10.02;6.30;;;;;;;9.82;83.32;100321.16;4999046;28;20064;-45
2022/04/24 06:35:59;;;;;;;9.60;6.88;;;;;;;9.93;83.15;100327.97;4998896;28;20057;-43
2022/04/24 06:38:24;;;;;;;8.55;6.60;;;;;;;10.00;81.65;100320.97;5009052;28;20508;-43
2022/04/24 06:40:50;;;;;;;7.78;6.25;;;;;;;10.07;82.00;100332.63;5008962;28;20033;-45
2022/04/24 06:43:15;;;;;;;10.75;6.55;;;;;;;10.14;81.22;100333.59;5013777;28;20101;-43
2022/04/24 06:45:43;;;;;;;9.98;6.95;;;;;;;10.23;80.67;100326.41;5018228;28;20392;-45
2022/04/24 06:48:10;;;;;;;12.02;7.20;;;;;;;10.28;80.56;100337.41;5017104;28;20590;-43
2022/04/24 06:50:37;;;;;;;9.65;6.53;;;;;;;10.36;79.61;100331.25;5038242;28;20051;-43
2022/04/24 06:53:11;;;;;;;8.55;6.60;;;;;;;10.41;79.81;100332.38;5034383;28;20112;-41
2022/04/24 06:55:38;;;;;;;9.75;6.07;;;;;;;10.49;78.75;100344.03;5034158;28;20239;-42
2022/04/24 06:58:05;;;;;;;11.52;6.60;;;;;;;10.58;79.09;100348.34;5022875;28;20929;-43
2022/04/24 07:00:33;;;;;;;8.93;6.55;;;;;;;10.67;77.39;100347.28;5028619;28;20567;-42
2022/04/24 07:02:58;;;;;;;8.95;6.47;;;;;;;10.74;78.25;100340.28;5027972;28;20079;-43
2022/04/24 07:05:27;;;;;;;10.15;6.32;;;;;;;10.86;76.74;100340.69;5037512;28;20029;-43
2022/04/24 07:07:53;;;;;;;11.32;6.47;;;;;;;10.96;76.78;100343.13;5039710;28;20114;-43
2022/04/24 07:10:19;;;;;;;8.88;6.50;;;;;;;11.08;76.86;100343.56;5032613;28;20499;-43
2022/04/24 07:12:51;;;;;;;8.43;6.32;;;;;;;11.20;76.16;100336.78;5014988;28;20034;-42
2022/04/24 07:15:18;;;;;;;9.75;6.55;;;;;;;11.30;75.78;100342.78;5037630;28;20600;-43
2022/04/24 07:17:44;;;;;;;11.40;6.30;;;;;;;11.39;74.06;100343.53;5038192;28;20021;-46
2022/04/24 07:20:11;;;;;;;17.38;6.80;;;;;;;11.53;74.89;100350.75;5036866;28;20031;-43
2022/04/24 07:22:52;;;;;;;11.02;6.53;;;;;;;11.72;74.60;100351.28;5036605;28;20090;-44
2022/04/24 07:25:19;;;;;;;8.63;5.95;;;;;;;11.85;72.95;100353.34;5037495;28;20047;-43
2022/04/24 07:27:45;;;;;;;10.68;6.57;;;;;;;11.94;73.04;100349.59;5037147;28;20024;-43
2022/04/24 07:30:15;;;;;;;11.65;6.65;;;;;;;12.05;72.21;100351.84;5037991;28;20224;-44
2022/04/24 07:32:42;;;;;;;9.73;6.50;;;;;;;12.24;72.62;100355.00;5035791;28;20400;-41
2022/04/24 07:35:09;;;;;;;17.52;6.80;;;;;;;12.35;71.55;100362.56;5016311;28;20037;-40
2022/04/24 07:37:34;;;;;;;11.93;6.47;;;;;;;12.39;69.77;100353.16;5032797;28;20029;-40
2022/04/24 07:40:00;;;;;;;11.00;6.68;;;;;;;12.43;69.82;100358.97;5034952;28;20072;-40
2022/04/24 07:42:25;;;;;;;8.93;6.53;;;;;;;12.55;69.72;100362.81;5032002;28;20068;-43
2022/04/24 07:44:51;;;;;;;7.60;6.03;;;;;;;12.72;71.46;100359.97;5023165;28;20148;-43
2022/04/24 07:47:16;;;;;;;8.75;6.43;;;;;;;12.83;68.41;100359.44;5017333;28;20498;-43
2022/04/24 07:49:41;;;;;;;12.02;6.18;;;;;;;12.93;70.08;100353.81;5007610;28;20322;-42
2022/04/24 07:52:07;;;;;;;9.23;6.75;;;;;;;13.05;68.65;100363.00;4997325;28;20421;-42
2022/04/24 07:54:32;;;;;;;9.73;6.22;;;;;;;13.18;66.78;100354.28;4995830;28;20158;-42
2022/04/24 07:56:57;;;;;;;8.55;6.53;;;;;;;13.32;66.29;100358.78;5009492;28;20498;-42
2022/04/24 07:59:22;;;;;;;9.88;6.40;;;;;;;13.43;66.47;100349.41;5017678;28;20033;-40
2022/04/24 08:01:51;;;;;;;8.80;6.40;;;;;;;13.60;65.80;100366.91;5017541;28;20070;-40
2022/04/24 08:04:16;;;;;;;13.68;6.88;;;;;;;13.66;65.91;100357.25;5016561;28;20113;-43
2022/04/24 08:06:42;;;;;;;10.35;6.35;;;;;;;13.75;65.12;100360.63;5006408;28;20151;-40
2022/04/24 08:09:07;;;;;;;7.78;6.60;;;;;;;13.83;64.14;100365.84;5008650;28;20048;-41
2022/04/24 08:11:32;;;;;;;9.02;6.50;;;;;;;13.93;63.97;100371.72;5027638;28;20499;-45
2022/04/24 08:13:57;;;;;;;9.80;6.68;;;;;;;13.98;63.66;100371.97;5034654;28;20051;-42
2022/04/24 08:16:26;;;;;;;7.53;6.68;;;;;;;14.02;61.38;100374.25;5019105;28;20528;-41
2022/04/24 08:18:52;;;;;;;13.35;6.72;;;;;;;13.98;62.78;100369.28;5022995;28;20068;-44
2022/04/24 08:21:17;;;;;;;8.63;6.57;;;;;;;14.09;65.72;100367.09;5036610;28;20056;-41
2022/04/24 08:23:43;;;;;;;11.98;6.88;;;;;;;14.28;64.55;100373.63;5018462;28;20056;-43
2022/04/24 08:26:10;;;;;;;8.32;6.70;;;;;;;14.47;62.74;100380.94;5017076;28;20196;-43
2022/04/24 08:28:35;;;;;;;10.82;6.80;;;;;;;14.66;63.77;100382.13;5017841;28;20100;-43
2022/04/24 08:31:00;;;;;;;8.23;6.95;;;;;;;14.83;62.64;100387.16;5017998;28;20228;-40
2022/04/24 08:33:26;;;;;;;13.50;7.07;;;;;;;14.94;62.21;100380.38;5016143;28;20037;-42
2022/04/24 08:35:51;;;;;;;10.48;6.43;;;;;;;15.01;59.65;100378.56;5016304;28;20029;-41
2022/04/24 08:38:17;;;;;;;10.82;7.15;;;;;;;15.01;60.16;100374.00;5015526;28;20052;-44
2022/04/24 08:40:42;;;;;;;10.73;6.85;;;;;;;15.13;60.54;100382.31;5002642;28;20092;-45
2022/04/24 08:43:08;;;;;;;13.73;6.80;;;;;;;15.14;58.68;100373.22;5016749;28;20093;-42
2022/04/24 08:45:34;;;;;;;10.95;7.28;;;;;;;15.17;58.84;100383.53;5013147;28;20026;-45
2022/04/24 08:48:00;;;;;;;12.15;7.28;;;;;;;15.34;59.27;100388.56;5022090;28;20523;-42
2022/04/24 08:50:28;;;;;;;9.10;7.43;;;;;;;15.48;58.06;100382.19;5021474;28;20164;-42
2022/04/24 08:52:55;;;;;;;11.52;7.32;;;;;;;15.61;56.58;100387.59;5027082;28;20029;-42
2022/04/24 08:55:20;;;;;;;10.00;7.55;;;;;;;15.69;56.33;100386.53;5027722;28;20021;-41
2022/04/24 08:57:46;;;;;;;9.65;7.78;;;;;;;15.67;56.62;100383.25;5035923;28;20021;-45
2022/04/24 09:00:12;;;;;;;9.13;7.30;;;;;;;15.84;58.38;100384.50;5033785;28;20036;-45
2022/04/24 09:02:37;;;;;;;11.68;7.32;;;;;;;15.94;59.16;100388.66;5035620;28;20095;-40
2022/04/24 09:05:06;;;;;;;11.07;7.20;;;;;;;16.11;54.01;100389.06;5033274;28;20297;-43
2022/04/24 09:07:33;;;;;;;13.27;7.75;;;;;;;16.27;58.28;100391.31;5032720;28;20135;-43
2022/04/24 09:10:03;;;;;;;10.55;6.68;;;;;;;16.44;57.04;100394.38;5036717;28;20032;-42
2022/04/24 09:12:32;;;;;;;7.90;6.97;;;;;;;16.46;52.37;100394.19;5020316;28;20385;-42
2022/04/24 09:14:58;;;;;;;10.60;7.93;;;;;;;16.46;54.83;100391.47;5008266;28;20036;-42
2022/04/24 09:17:25;;;;;;;12.82;7.63;;;;;;;16.51;52.89;100392.50;5030960;28;20084;-43
2022/04/24 09:19:52;;;;;;;12.88;8.02;;;;;;;16.42;51.76;100385.69;5035589;28;20036;-41
2022/04/24 09:22:18;;;;;;;10.00;8.00;;;;;;;16.49;51.91;100386.50;5031217;28;20373;-41
2022/04/24 09:24:52;;;;;;;13.05;7.97;;;;;;;16.61;52.56;100394.75;5030547;28;20055;-42
2022/04/24 09:27:22;;;;;;;9.50;7.68;;;;;;;16.77;52.47;100396.19;5031188;28;20033;-41
2022/04/24 09:29:54;;;;;;;11.98;7.75;;;;;;;16.86;54.55;100396.78;5039398;28;20029;-43
2022/04/24 09:32:21;;;;;;;10.15;7.82;;;;;;;16.96;52.66;100405.25;5037658;28;20028;-41
2022/04/24 09:34:46;;;;;;;9.48;7.63;;;;;;;17.04;52.35;100393.38;5035076;28;20594;-43
2022/04/24 09:37:12;;;;;;;9.25;6.95;;;;;;;17.03;51.34;100395.25;5038425;28;20202;-42
2022/04/24 09:39:38;;;;;;;11.10;7.78;;;;;;;17.17;51.39;100395.19;5039767;28;20252;-42
2022/04/24 09:42:11;;;;;;;8.32;7.05;;;;;;;17.32;56.29;100395.72;5032391;28;20025;-42
2022/04/24 09:44:48;;;;;;;12.18;7.65;;;;;;;17.41;49.85;100390.91;5036952;28;20559;-42
2022/04/24 09:47:17;;;;;;;11.93;7.07;;;;;;;17.52;49.27;100393.72;5040418;28;20214;-45
2022/04/24 09:49:46;;;;;;;10.63;8.07;;;;;;;17.57;48.61;100386.88;5033638;28;20043;-46
2022/04/24 09:52:19;;;;;;;10.18;7.72;;;;;;;17.78;49.09;100385.66;5029071;28;20432;-44
2022/04/24 09:54:47;;;;;;;10.90;7.50;;;;;;;17.95;52.29;100392.19;5032221;28;20029;-41
2022/04/24 09:57:13;;;;;;;10.05;7.10;;;;;;;18.18;49.49;100393.47;5037489;28;20490;-40
2022/04/24 09:59:41;;;;;;;10.55;7.78;;;;;;;18.19;45.64;100395.91;5036180;28;20028;-43
2022/04/24 10:02:08;;;;;;;8.85;7.65;;;;;;;18.25;45.61;100396.91;5039856;28;20020;-43
2022/04/24 10:04:35;;;;;;;13.35;8.70;;;;;;;18.44;45.36;100397.75;5035750;28;20029;-43
2022/04/24 10:07:12;;;;;;;10.40;7.60;;;;;;;18.56;45.23;100395.13;5038854;28;20017;-41
2022/04/24 10:09:39;;;;;;;15.13;7.15;;;;;;;18.64;44.52;100397.56;5039738;28;20075;-41
2022/04/24 10:12:15;;;;;;;15.65;8.07;;;;;;;18.59;48.77;100392.00;5039850;28;20721;-43
2022/04/24 10:14:50;;;;;;;12.98;7.35;;;;;;;18.68;47.20;100396.03;5029632;28;20037;-43
2022/04/24 10:17:43;;;;;;;8.80;7.28;;;;;;;18.86;45.94;100399.84;5020736;28;20025;-41
2022/04/24 10:20:28;;;;;;;13.15;7.20;;;;;;;18.93;44.45;100395.97;5038701;28;20063;-41
2022/04/24 10:22:54;;;;;;;10.13;7.30;;;;;;;18.95;43.44;100401.97;5022924;28;20044;-44
2022/04/24 10:25:35;;;;;;;11.63;7.07;;;;;;;19.04;43.80;100402.50;5018256;28;20024;-43
2022/04/24 10:28:11;;;;;;;9.20;7.20;;;;;;;19.07;44.25;100396.63;5036095;28;20024;-42
2022/04/24 10:30:37;;;;;;;11.02;7.13;;;;;;;19.01;43.39;100401.09;5040995;28;20418;-42
2022/04/24 10:33:22;;;;;;;8.27;6.82;;;;;;;19.06;44.00;100400.41;5021898;28;20209;-43
2022/04/24 10:35:53;;;;;;;10.35;6.95;;;;;;;19.16;43.25;100405.25;5005790;28;20089;-44
2022/04/24 10:38:21;;;;;;;10.45;7.20;;;;;;;19.10;42.26;100407.00;4999445;28;20081;-44
2022/04/24 10:40:57;;;;;;;9.20;6.53;;;;;;;19.18;43.07;100401.28;5000818;28;20021;-46
2022/04/24 10:43:23;;;;;;;11.73;6.90;;;;;;;19.12;40.91;100414.91;4999354;28;20036;-42
2022/04/24 10:45:50;;;;;;;9.88;6.20;;;;;;;19.16;41.16;100408.81;5012345;28;20021;-44
2022/04/24 10:48:16;;;;;;;10.18;6.40;;;;;;;19.30;41.47;100406.75;5009576;28;20030;-43
2022/04/24 10:50:49;;;;;;;16.33;7.13;;;;;;;19.39;40.77;100399.13;5017218;28;20044;-41
2022/04/24 10:53:15;;;;;;;8.88;6.70;;;;;;;19.49;39.82;100404.78;5008896;28;20021;-42
2022/04/24 10:55:42;;;;;;;13.80;6.90;;;;;;;19.61;40.57;100399.41;5020162;28;20110;-41
2022/04/24 10:58:09;;;;;;;13.27;6.32;;;;;;;19.68;41.69;100397.41;5026271;28;20068;-43
2022/04/24 11:00:34;;;;;;;9.13;6.30;;;;;;;19.78;40.16;100399.59;5034742;28;20031;-42
2022/04/24 11:03:09;;;;;;;7.15;6.38;;;;;;;19.76;39.75;100399.00;5027342;28;20138;-42
2022/04/24 11:05:40;;;;;;;12.63;6.53;;;;;;;19.90;40.04;100394.19;5038147;28;20514;-42
2022/04/24 11:08:06;;;;;;;;;;;;;;;20.10;40.17;100391.16;5038391;28;20083;-42
2022/04/24 11:10:39;;;;;;;11.40;6.47;;;;;;;19.92;38.41;100387.50;5036736;28;19912;-41
2022/04/24 11:13:08;;;;;;;9.48;6.40;;;;;;;19.92;38.55;100390.19;5036650;28;20033;-43
2022/04/24 11:15:34;;;;;;;7.93;6.00;;;;;;;20.04;38.83;100395.59;5038664;28;20499;-42
2022/04/24 11:17:59;;;;;;;7.55;6.63;;;;;;;20.38;37.32;100389.59;5037308;28;20032;-41
2022/04/24 11:20:31;;;;;;;10.85;6.40;;;;;;;20.42;38.70;100396.22;5036766;28;20775;-43
2022/04/24 11:22:56;;;;;;;7.18;6.03;;;;;;;20.45;36.91;100395.72;5032172;28;20043;-43